aviador You're here:

VHHH Decoded Metar

HONG KONG in HONG KONG
Report Time2018-05-25 20:30:00
UTC Time2018-05-25 20:48:14
Flight Rules vfr VFR
Wind220° at 07 kt
W.Decomp.*RWY 25: 6.2 kt HW 3.3 kt LCW
W.Rank220° ranks 12
Current wind is below 220° avg. (8.4)
Visibility9999 m
Phenomena:N/A
Clouds:Few 028 Hf
Expected CloudBase > 2,000 ft AGL from Temp-Dew spread
CeilingNone
Temp30°C (ISA +15)
Dew Point25°C (75% RH)
Heat Index36.3°C
QNH1007 hPa
Density Alt2,372 ft
Elevation30 ft
Report Wrong Elevation
Raw Report
METAR VHHH 252030Z 22007KT 9999 FEW028 30/25 Q1007 NOSIG=

Extra information for VHHH:More info

Metar Taf Metar & Taf Last 4 Metars F.Rules Stats Wind Profile Meteogram Temp Stats Airport Information Weather charts Add Link Nearby VenuesMetar ALERT Operation Metar Decoded Social comments